fbpx

Olá amigos,

Aqui vocês encontram a lista de tempo da categoria TURISMO, para a etapa de Atibaia que rolou dia 01/05/2016, lembramos que nosso evento não é uma competição a nossa lista é divulgada por ordem alfabética, não possui uma classificação por tempo.

E o tempo só é divulgado para aqueles que tiveram seus passaportes carimbados em todos os pc’s.

NÚMERO NOME LARGADA CHEGADA TEMPO FINAL CATEGORIA
71 ADAO DO NASCIMENTO 09:00:00 12:30:00 3h 30m TURISMO
236 ADILSON BATISTA 09:00:00 12:59:00 3h 59m TURISMO
244 ADRIANA FREITAS DE SOUZA 09:00:00 12:30:00 3h 30m TURISMO
102 ADRIANO MARCHETTI 09:00:00 12:52:00 3h 52m TURISMO
367 ALBERTO MOTA LIMA 09:00:00 12:00:00 3h TURISMO
3 ALDNEI ROGÉRIO BARBOSA 09:00:00 11:52:00 2h 52m TURISMO
295 ALEX SALLES 09:00:00 11:47:00 2h 47m TURISMO
18 ALEXANDRE LEFAS 09:00:00 11:56:00 2h 56m TURISMO
249 ALEXANDRE PARREIRA STOCKLER CARVALHAES 09:00:00 12:02:00 3h 2m TURISMO
200 ALVARO DONIZETI DE OLIVEIRA 09:00:00 12:26:00 3h 26m TURISMO
8 AMANDA CRISTINA DE SOUZA 09:00:00 13:15:00 4h 15m TURISMO
260 AMARILDO DE JESUS BERTINI 09:00:00 11:08:00 2h 8m TURISMO
21 ANA PAULA CAPOTE 09:00:00 12:52:00 3h 52m TURISMO
70 ANA PAULA SALINAS GARCIA 09:00:00 12:13:00 3h 13m TURISMO
371 ANDRE BARROS ABRANTES 09:00:00 11:13:00 2h 13m TURISMO
264 ANDRÉ EDUARDO CAMARGO MARQUES 09:00:00 11:38:00 2h 38m TURISMO
131 ANDRE GUSMÃO 09:00:00 11:31:00 2h 31m TURISMO
212 ANDRÉ WEIGEL 09:00:00 11:47:00 2h 47m TURISMO
107 ANDREA RODRIGUES CARDOSO TERUEL 09:00:00 12:56:00 3h 56m TURISMO
61 ANDREA ZAJDENWERG 09:00:00 12:26:00 3h 26m TURISMO
363 ANTENOR GOMES DE LIMA 09:00:00 12:01:00 3h 1m TURISMO
243 ANTONIO.IANNACO 09:00:00 12:18:00 3h 18m TURISMO
245 ARILSON MARCELO SOUTO DE SOUZA 09:00:00 12:33:00 3h 33m TURISMO
372 BILLEY CURTHIANS GANDINI SANTOS 09:00:00 12:23:00 3h 23m TURISMO
6 BRUNO FRATTA DE LA TORRE 09:00:00 13:15:00 4h 15m TURISMO
26 CAIO AUGUSTO DIAS DA CUNHA 09:00:00 11:54:00 2h 54m TURISMO
110 CAMILA CRISTINA DIAS DE PAULA 09:00:00 11:59:00 2h 59m TURISMO
208 CARLOS ALBERTO MONTEIRO 09:00:00 12:39:00 3h 39m TURISMO
296 CASSIA SILENE VIEIRA DE MEDEIROS 09:00:00 12:45:00 3h 45m TURISMO
297 CELAINE CELLANI BATISTA 09:00:00 12:47:00 3h 47m TURISMO
98 CESAR LUCIO CORRÊA DE SÁ JR 09:00:00 12:19:00 3h 19m TURISMO
433 CIRLEI CÉLIA GOMES SANCHEZ MORENO 09:00:00 12:06:00 3h 6m TURISMO
99 CLAUDINEI DE ALCÂNTARA SILVA 09:00:00 12:33:00 3h 33m TURISMO
336 CLAUDIO DA SILVA KURNIK 09:00:00 13:03:00 4h 3m TURISMO
366 CRISTIANO BONIOLO 09:00:00 11:57:00 2h 57m TURISMO
315 CRISTIANO OLIVEIRA 09:00:00 12:04:00 3h 4m TURISMO
230 DANIEL ROMANO ZOGBI 09:00:00 12:14:00 3h 14m TURISMO
298 DANIELLI CRISTINA BENEDITO SALLES 09:00:00 11:47:00 2h 47m TURISMO
185 DENISE SOARES 09:00:00 12:12:00 3h 12m TURISMO
204 DIEGO SILVERIO 09:00:00 11:47:00 2h 47m TURISMO
159 DINÁ HARUMI NAGANO 09:00:00 12:18:00 3h 18m TURISMO
299 DJAIR APARECIDO DE SOUZA 09:00:00 11:32:00 2h 32m TURISMO
20 EDILSON DE LIMA 09:00:00 12:41:00 3h 41m TURISMO
87 EDILSON MENDES SANTOS 09:00:00 13:23:00 4h 23m TURISMO
217 EDMILSON RIBEIRO AMARAL 09:00:00 13:12:00 4h 12m TURISMO
254 EDNEI MIRANDA DOS SANTOS 09:00:00 11:41:00 2h 41m TURISMO
11 EDSON RIBEIRO 09:00:00 11:44:00 2h 44m TURISMO
201 EDUARDO APARECIDO JOSÉ DA ROSA 09:00:00 12:44:00 3h 44m TURISMO
423 EDUARDO ASTUR 09:00:00 13:39:00 4h 39m TURISMO
111 EDUARDO MORIKUNI FORTES 09:00:00 11:59:00 2h 59m TURISMO
375 EDUARDO PEREIRA DA SILVA 09:00:00 14:16:00 5h 16m TURISMO
92 EDUARDO SERGIO SPALDING 09:00:00 12:16:00 3h 16m TURISMO
73 ELAINE BONINI 09:00:00 11:58:00 2h 58m TURISMO
376 ELIDA SIQUEROLI 09:00:00 12:21:00 3h 21m TURISMO
377 ELVES GODINHO MATTOSCHOELL 09:00:00 13:36:00 4h 36m TURISMO
166 EMERSON DOS SANTOS SANTANA 09:00:00 11:52:00 2h 52m TURISMO
76 EMERSON MARCELO ALVES DA CUNHA DE LEO 09:00:00 11:34:00 2h 34m TURISMO
378 ERIC ELIAS DE MORAES 09:00:00 12:19:00 3h 19m TURISMO
227 ERICK DE OLIVEIRA BERNARDELI 09:00:00 11:49:00 2h 49m TURISMO
354 ERIKSON ELOI SALOMONI 09:00:00 11:45:00 2h 45m TURISMO
154 EVERTON CRIVOI DO CARMO 09:00:00 11:55:00 2h 55m TURISMO
381 FABIO BIZZI PETERSON 09:00:00 11:22:00 2h 22m TURISMO
357 FABIO FERNANDES BORGES 09:00:00 13:10:00 4h 10m TURISMO
105 FABRICIO RODRIGUES ANDRADE 09:00:00 12:10:00 3h 10m TURISMO
326 FELIPPE GABECH RIBEIRO 09:00:00 12:28:00 3h 28m TURISMO
302 FERNANDO SIQUEROLI 09:00:00 12:21:00 3h 21m TURISMO
90 FLAVIO DA SILVA 09:00:00 11:55:00 2h 55m TURISMO
39 FRANZ MIRANDA UNTOJA 09:00:00 12:28:00 3h 28m TURISMO
262 GESSICA ERICA PALOMARES 09:00:00 11:30:00 2h 30m TURISMO
134 GUILHERME FIGUEIREDO TORRES 09:00:00 12:17:00 3h 17m TURISMO
19 GUILHERME FURLAN E SOUZA 09:00:00 13:53:00 4h 53m TURISMO
384 HAMILTON PLETSCH 09:00:00 12:04:00 3h 4m TURISMO
165 HARLEY GOMES DIAS 09:00:00 11:59:00 2h 59m TURISMO
385 ISAAC PEREIRA DA SILVA 09:00:00 13:36:00 4h 36m TURISMO
225 JACQUES DEMAJOROVIC 09:00:00 12:00:00 3h TURISMO
126 JAHIR ANTÔNIO DE OLIVEIRA JR 09:00:00 11:58:00 2h 58m TURISMO
429 JAMILE FERNANDES 09:00:00 12:36:00 3h 36m TURISMO
387 JAMIR BAPTISTA FERREIRA NETO 09:00:00 11:26:00 2h 26m TURISMO
291 JOÃO BATISTA AMADORI 09:00:00 12:15:00 3h 15m TURISMO
388 JOÃO GILBERTO DA SILVA VIEIRA 09:00:00 11:27:00 2h 27m TURISMO
189 JOÃO HENRIQUE DE MARCO 09:00:00 12:45:00 3h 45m TURISMO
32 JOSE CARLOS ABREU DE LIMA 09:00:00 11:51:00 2h 51m TURISMO
162 JOSE GILDAUSIO DE OLIVEIRA 09:00:00 12:45:00 3h 45m TURISMO
213 JOSE LUIZ DA COSTA DE ALMEIDA 09:00:00 11:44:00 2h 44m TURISMO
390 JOSÉ RAIMUNDO TORRES 09:00:00 11:48:00 2h 48m TURISMO
74 JULIA DEL MONTE BRANDAO 09:00:00 12:13:00 3h 13m TURISMO
224 JULIANA DA CUNHA E SILVA 09:00:00 12:00:00 3h TURISMO
293 JULIANO MUSSA BONFIM 09:00:00 11:51:00 2h 51m TURISMO
83 KARLOS FRANK LINS 09:00:00 11:28:00 2h 28m TURISMO
305 LEANDRO HENRIQUE RODRIGUES DO NASCIMENTO 09:00:00 12:45:00 3h 45m TURISMO
261 LEONARDO FERREIRA DE FREITAS 09:00:00 11:50:00 2h 50m TURISMO
100 LEONARDO USUDA 09:00:00 11:38:00 2h 38m TURISMO
365 LEVI OLIVEIRA QUINA JUNIOR 09:00:00 11:26:00 2h 26m TURISMO
273 LIDIANE DE FREITAS DOMINGOS 09:00:00 12:33:00 3h 33m TURISMO
247 LUCIA REGINA AFONSO CHAVES 09:00:00 12:50:00 3h 50m TURISMO
161 LUCIANO SILVA DOS SANTOS 09:00:00 12:44:00 3h 44m TURISMO
392 LUÍS FERNANDO CRUZ 09:00:00 11:30:00 2h 30m TURISMO
229 LUIZ CARLOS DE PAIVA 09:00:00 12:58:00 3h 58m TURISMO
434 LUIZ GUSTAVO CALIMAN RISSE 09:00:00 12:06:00 3h 6m TURISMO
218 MARCELO LUZ E SILVA 09:00:00 12:05:00 3h 5m TURISMO
235 MARCELO R ZOGBI 09:00:00 12:14:00 3h 14m TURISMO
364 MARCELO SILVEIRA GONZALEZ 09:00:00 12:31:00 3h 31m TURISMO
275 MARCIA ALVES DE LEMOS MACHADO 09:00:00 12:52:00 3h 52m TURISMO
333 MARCIA APARECIDA DE OLIVEIRA TEIXEIRA 09:00:00 12:44:00 3h 44m TURISMO
286 MARCIO FAVERO 09:00:00 13:43:00 4h 43m TURISMO
66 MARCO ANDRÉ DIAS CANTANHEDE 09:00:00 12:06:00 3h 6m TURISMO
82 MARCO ANTONIO FERREIRA 09:00:00 12:56:00 3h 56m TURISMO
395 MARCOS D´AGUANI 09:00:00 12:39:00 3h 39m TURISMO
160 MARCOS PIGOZZO 09:00:00 12:18:00 3h 18m TURISMO
306 MARGARETH SOARES FRASSI DO NASCIMENTO 09:00:00 12:45:00 3h 45m TURISMO
206 MARIA DO ROSARIO VERNILO MENEZES 09:00:00 11:46:00 2h 46m TURISMO
396 MARIA ELIANE CZEREMETA 09:00:00 12:20:00 3h 20m TURISMO
397 MARIA JOSÉ DE LIMA TORRES 09:00:00 11:48:00 2h 48m TURISMO
188 MARIANA PECCICACCO 09:00:00 12:45:00 3h 45m TURISMO
27 MARIANE RODRIGUES 09:00:00 11:57:00 2h 57m TURISMO
36 MARISA APARECIDA SANTOS MARTINS 09:00:00 12:27:00 3h 27m TURISMO
308 MARLI LOPES ALVES 09:00:00 12:47:00 3h 47m TURISMO
255 MARLON ANTONIO ROCHA 09:00:00 12:03:00 3h 3m TURISMO
60 MICHEL CREMONIN MATEO 09:00:00 12:27:00 3h 27m TURISMO
355 MILTON PICCHETTI JUNIOR 09:00:00 11:34:00 2h 34m TURISMO
104 MIRIAM YOKOTA ANDRADE 09:00:00 12:11:00 3h 11m TURISMO
400 MOACIR DA VEIGA FILHO 09:00:00 11:33:00 2h 33m TURISMO
283 NATHALIA CONDE SADA 09:00:00 12:40:00 3h 40m TURISMO
246 NIVALDO CARDOSO MAGALHÃES 09:00:00 11:13:00 2h 13m TURISMO
309 NORBERTO DONIZETE DE SOUZA 09:00:00 11:31:00 2h 31m TURISMO
241 OLIVAL DE NAPOLES 09:00:00 13:13:00 4h 13m TURISMO
23 OSMAR CEZAR CEVADA 09:00:00 13:52:00 4h 52m TURISMO
294 OTAVIO FELICIO CONSOLO 09:00:00 12:34:00 3h 34m TURISMO
163 OTHON FERNANDES DE OLIVEIRA E SILVA JUNIOR 09:00:00 11:59:00 2h 59m TURISMO
403 PAULA PECCICACCO 09:00:00 12:50:00 3h 50m TURISMO
205 PAULO CESAR DE SÁ FONSECA 09:00:00 12:48:00 3h 48m TURISMO
257 PAULO CESAR DIAS GOMES 09:00:00 12:19:00 3h 19m TURISMO
404 PAULO CESAR MEDEIROS 09:00:00 12:02:00 3h 2m TURISMO
361 PAULO F. MACKEVICIUS 09:00:00 12:43:00 3h 43m TURISMO
310 PAULO SERGIO BATISTA 09:00:00 12:47:00 3h 47m TURISMO
78 PEDRO DEL MONTEBRANDÃO 09:00:00 12:14:00 3h 14m TURISMO
202 PEDRO JOSÉ DA ROSA 09:00:00 12:46:00 3h 46m TURISMO
96 PRISCILA F LAGOS 09:00:00 12:22:00 3h 22m TURISMO
359 PRISCILA RENATA DOS SANTOS BORGES 09:00:00 13:11:00 4h 11m TURISMO
238 RAFAEL AUGUSTI 09:00:00 12:11:00 3h 11m TURISMO
9 RAFAEL DOS SANTOS RIBEIRO 09:00:00 11:43:00 2h 43m TURISMO
406 RAFAEL LUIS SEIXAS FERREIRA ROSSI 09:00:00 12:25:00 3h 25m TURISMO
93 RAFAEL ZARA GARRIO 09:00:00 12:49:00 3h 49m TURISMO
407 RAQUEL FINOTTI MATURANO 09:00:00 11:35:00 2h 35m TURISMO
408 REGINALDO RODRIGUES FERREIRA 09:00:00 12:38:00 3h 38m TURISMO
409 REINALDO JOSÉ MARIALVA 09:00:00 12:20:00 3h 20m TURISMO
311 RENATO CLEMENTE ALVES 09:00:00 12:47:00 3h 47m TURISMO
13 RENATO GONZALEZ MARTINS 09:00:00 11:50:00 2h 50m TURISMO
103 REYNALDO GOMES 09:00:00 12:52:00 3h 52m TURISMO
410 RICARDO DE SOUZA ESPER FILHO 09:00:00 12:23:00 3h 23m TURISMO
46 RICARDO PINHEIRO PAIXAO 09:00:00 12:10:00 3h 10m TURISMO
108 RICARDO TERUEL 09:00:00 12:56:00 3h 56m TURISMO
94 ROBERTA KICUE HONDA 09:00:00 12:49:00 3h 49m TURISMO
34 ROBERTO KOITI ARIMURA 09:00:00 12:27:00 3h 27m TURISMO
228 ROBSON DOS ANJOS CHICAROLLI FILHO 09:00:00 11:49:00 2h 49m TURISMO
411 RODINEI ALBERTO 09:00:00 12:43:00 3h 43m TURISMO
237 RODRIGO AUGUSTI 09:00:00 12:11:00 3h 11m TURISMO
59 RODRIGO BERTOCO 09:00:00 11:32:00 2h 32m TURISMO
328 ROGERIO ALESSANDRO NOGUEIRA 09:00:00 11:52:00 2h 52m TURISMO
155 ROSELAINE SOARES DURELI CRIVOI 09:00:00 11:55:00 2h 55m TURISMO
67 SAMUEL PIERETTI 09:00:00 11:48:00 2h 48m TURISMO
101 SANDRA CRISTINA ALMEIDA USUDA 09:00:00 11:38:00 2h 38m TURISMO
47 SANDRA CRISTINA SANCHES ALVES AOYAGI 09:00:00 13:00:00 4h TURISMO
65 SANDRO RICARDO CONSOLO 09:00:00 12:31:00 3h 31m TURISMO
414 SEBASTIAN LUCCA DE ASSIS NETTO 09:00:00 11:33:00 2h 33m TURISMO
415 SERGIO L. A. P. COELHO 09:00:00 11:18:00 2h 18m TURISMO
324 SÉRGIO RICARDO GIRCIS 09:00:00 13:06:00 4h 6m TURISMO
45 SILMARA PERIM 09:00:00 12:09:00 3h 9m TURISMO
216 SILVIA PEREIRA SIMÕES 09:00:00 12:26:00 3h 26m TURISMO
5 SONIA REGINA DE SOUZA 09:00:00 12:56:00 3h 56m TURISMO
215 TANIA BOTTER GAMARRA 09:00:00 13:12:00 4h 12m TURISMO
418 TELMA BOARO FERREIRA 09:00:00 12:38:00 3h 38m TURISMO
427 THIAGO VIOLIM 09:00:00 11:45:00 2h 45m TURISMO
109 TIAGO ROCHA DA SILVA ARAUJO 09:00:00 11:31:00 2h 31m TURISMO
312 VANESSA RUBIA DA SILVA 09:00:00 12:46:00 3h 46m TURISMO
130 VERA LUCIA FILIPPELLI GARCIA 09:00:00 12:48:00 3h 48m TURISMO
106 VINICIUS BONONI DE ALMEIDA 09:00:00 12:17:00 3h 17m TURISMO
37 WAGNER CARDOSO 09:00:00 12:27:00 3h 27m TURISMO
274 WALTER DE LEMOS MACHADO 09:00:00 12:44:00 3h 44m TURISMO
263 WALTER VIEIRA FILHO 09:00:00 11:32:00 2h 32m TURISMO
58 WELLINGTON BERNARDINO DE OLIVEIRA 09:00:00 11:38:00 2h 38m TURISMO
86 WELTON GLEYTON SOUSA REIS 09:00:00 11:52:00 2h 52m TURISMO
422 WILLIAM DE SOUZA AGOSTINHO 09:00:00 13:09:00 4h 9m TURISMO
313 WILTON LANCIERI 09:00:00 12:46:00 3h 46m TURISMO
353 XADIA MARINS SILVA D OLIVEIRA MARTINS 09:00:00 12:57:00 3h 57m TURISMO
350 ZELIA JACINTA SANTOS DE BRITO 09:00:00 12:57:00 3h 57m TURISMO
Lista de tempo categoria Turismo Atibaia 2016
Compartilhe com seus amigos